Prudenville, Michigan
Current Conditions -  °F | °C
As of 4:36 PM on Friday 24 Oct 2014 (Local Time) from KHTL Reporting Station
Haze Haze  
Wind Chill: 52°   Ceiling: 1000
Heat Index: 52°   Visibility: 4mi
Dew Point: 49°   Wind: 5mph
Humidity: 89%   Direction: 240°WSW
Pressure: 29.95"   Gusts: NA
Location:  44.3°N, 84.66°W
Report Text: KHTL 242036Z AUTO 24004KT 4SM BR OVC010 11/09 A2995 RMK AO2 T01110094
Loading
Personal Weather Stations






























Interactive Weather Map
Tropical Storm Tracking
New forecast layout! Learn more

10-Day Weather Forecast

Advertisements
Track Severe Weather on mobile